Time;durP1;ratioP1;P1;durP2;ratioP2;P2;SDS_P1;SDS_P2;PMS_P1;PMS_P2;Temp;Humidity;BMP_temperature;BMP_pressure;BME280_temperature;BME280_humidity;BME280_pressure;Samples;Min_cycle;Max_cycle;Signal;HPM_P1;HPM_P2
2022/05/11 05:21:11;;;;;;;;;;;14.70;99.90;;;;;;5704418;23;19926;-92
2022/05/11 05:23:37;;;;;;;;;;;14.80;99.90;;;;;;4982025;28;19910;-92
2022/05/11 05:26:03;;;;;;;;;;;14.90;99.90;;;;;;4973469;28;19910;-92
2022/05/11 05:31:15;;;;;;;;;;;15.00;99.90;;;;;;4974443;28;20286;-92
2022/05/11 05:33:40;;;;;;;;;;;15.10;99.90;;;;;;4960800;28;20329;-92
2022/05/11 05:36:07;;;;;;;;;;;15.10;99.90;;;;;;4974223;28;20012;-92
2022/05/11 05:38:33;;;;;;;;;;;15.20;99.90;;;;;;4986083;28;19926;-92
2022/05/11 05:40:58;;;;;;;;;;;15.20;99.90;;;;;;4987699;28;19965;-92
2022/05/11 05:43:24;;;;;;;;;;;15.30;99.90;;;;;;4990159;28;19969;-92
2022/05/11 05:45:51;;;;;;;;;;;15.30;99.90;;;;;;4983432;28;19987;-92
2022/05/11 05:48:18;;;;;;;;;;;15.40;99.90;;;;;;4974193;28;19992;-91
2022/05/11 05:50:44;;;;;;;;;;;15.40;99.90;;;;;;4991754;28;19921;-92
2022/05/11 05:53:09;;;;;;;;;;;15.50;99.90;;;;;;4974489;28;19910;-91
2022/05/11 05:55:35;;;;;;;;;;;15.60;99.90;;;;;;4977814;28;19910;-92
2022/05/11 05:58:01;;;;;;;;;;;15.70;99.90;;;;;;4979462;28;19906;-92
2022/05/11 06:00:26;;;;;;;;;;;15.80;99.90;;;;;;4976728;28;19913;-91
2022/05/11 06:02:54;;;;;;;;;;;15.80;99.90;;;;;;4975751;28;20039;-90
2022/05/11 06:05:19;;;;;;;;;;;15.90;99.90;;;;;;4998123;28;19977;-91
2022/05/11 06:07:45;;;;;;;;;;;16.00;99.90;;;;;;4993051;28;20347;-91
2022/05/11 06:10:10;;;;;;;;;;;16.10;99.90;;;;;;4991406;28;20305;-91
2022/05/11 06:12:36;;;;;;;;;;;16.10;99.90;;;;;;4994341;28;20381;-91
2022/05/11 06:15:02;;;;;;;;;;;16.20;99.90;;;;;;4997660;28;19909;-90
2022/05/11 06:17:29;;;;;;;;;;;16.30;99.90;;;;;;4991717;28;20378;-90
2022/05/11 06:19:54;;;;;;;;;;;16.40;99.90;;;;;;4990873;28;19918;-91
2022/05/11 06:22:21;;;;;;;;;;;16.50;99.90;;;;;;4973678;28;20020;-90
2022/05/11 06:24:47;;;;;;;;;;;16.60;99.90;;;;;;4990999;28;19910;-90
2022/05/11 06:27:17;;;;;;;;;;;16.60;99.90;;;;;;4989837;28;19917;-90
2022/05/11 06:29:49;;;;;;;;;;;16.70;99.90;;;;;;4990888;28;20001;-90
2022/05/11 06:32:14;;;;;;;;;;;16.80;99.90;;;;;;4974955;28;19909;-91
2022/05/11 06:34:40;;;;;;;;;;;16.90;99.90;;;;;;4975815;28;20294;-90
2022/05/11 06:37:05;;;;;;;;;;;16.90;99.90;;;;;;4989693;28;20433;-90
2022/05/11 06:39:31;;;;;;;;;;;17.00;99.90;;;;;;4990809;28;20397;-90
2022/05/11 06:41:56;;;;;;;;;;;17.00;99.90;;;;;;4990758;28;20413;-90
2022/05/11 06:44:22;;;;;;;;;;;17.10;99.90;;;;;;4991091;28;19910;-89
2022/05/11 06:46:47;;;;;;;;;;;17.10;99.90;;;;;;4989635;28;19909;-90
2022/05/11 06:49:13;;;;;;;;;;;17.30;99.90;;;;;;4990825;28;19910;-90
2022/05/11 06:51:39;;;;;;;;;;;17.40;99.90;;;;;;4989605;28;19964;-90
2022/05/11 06:59:33;;;;;;;;;;;17.50;99.90;;;;;;4990638;28;19964;-91
2022/05/11 07:01:59;;;;;;;;;;;17.70;99.90;;;;;;4990825;28;20405;-91
2022/05/11 07:04:26;;;;;;;;;;;17.60;99.90;;;;;;4973134;28;20263;-91
2022/05/11 07:06:52;;;;;;;;;;;17.50;99.90;;;;;;4973286;28;19957;-91
2022/05/11 07:09:18;;;;;;;;;;;17.50;99.90;;;;;;4975487;28;19914;-91
2022/05/11 07:14:28;;;;;;;;;;;17.40;99.90;;;;;;4994656;28;19917;-90
2022/05/11 07:16:54;;;;;;;;;;;17.40;99.90;;;;;;4994823;28;19910;-90
2022/05/11 07:19:22;;;;;;;;;;;17.50;99.90;;;;;;4994521;28;20290;-90
2022/05/11 07:21:47;;;;;;;;;;;17.60;99.90;;;;;;4994124;28;19977;-91
2022/05/11 07:24:13;;;;;;;;;;;17.60;99.90;;;;;;4976698;28;19925;-90
2022/05/11 07:26:38;;;;;;;;;;;17.60;99.90;;;;;;4976579;28;19910;-90
2022/05/11 07:29:04;;;;;;;;;;;17.80;99.90;;;;;;4976620;28;19916;-91
2022/05/11 07:31:30;;;;;;;;;;;17.80;99.90;;;;;;4976680;28;20293;-91
2022/05/11 07:33:56;;;;;;;;;;;17.80;99.90;;;;;;4976488;28;19993;-90
2022/05/11 07:36:21;;;;;;;;;;;17.80;99.90;;;;;;4994250;28;19933;-91
2022/05/11 07:38:47;;;;;;;;;;;17.90;99.90;;;;;;4976254;28;19920;-90
2022/05/11 07:41:12;;;;;;;;;;;18.00;99.90;;;;;;4993638;28;19913;-91
2022/05/11 07:43:38;;;;;;;;;;;18.10;99.90;;;;;;4993762;28;19910;-91
2022/05/11 07:46:04;;;;;;;;;;;18.00;99.90;;;;;;4976174;28;19914;-91
2022/05/11 07:48:29;;;;;;;;;;;18.10;99.90;;;;;;4993793;28;19910;-91
2022/05/11 07:50:55;;;;;;;;;;;18.00;99.90;;;;;;4993745;28;20389;-90
2022/05/11 07:53:20;;;;;;;;;;;18.10;99.90;;;;;;4993823;28;19914;-90
2022/05/11 07:55:46;;;;;;;;;;;18.00;99.90;;;;;;4993411;28;20433;-90
2022/05/11 08:00:57;;;;;;;;;;;18.10;99.90;;;;;;4994039;28;19976;-90
2022/05/11 08:03:23;;;;;;;;;;;18.30;99.90;;;;;;4976004;28;20344;-91
2022/05/11 08:05:49;;;;;;;;;;;18.30;99.90;;;;;;4976559;28;19910;-90
2022/05/11 08:08:14;;;;;;;;;;;18.40;99.90;;;;;;4996258;28;19953;-90
2022/05/11 08:10:41;;;;;;;;;;;18.40;99.90;;;;;;4975664;28;19910;-91
2022/05/11 08:13:07;;;;;;;;;;;18.40;99.90;;;;;;4993496;28;19981;-91
2022/05/11 08:15:38;;;;;;;;;;;18.40;99.90;;;;;;4993292;28;20457;-91
2022/05/11 08:18:04;;;;;;;;;;;18.50;99.90;;;;;;4993087;28;19910;-91
2022/05/11 08:20:32;;;;;;;;;;;18.50;99.90;;;;;;4974740;28;20000;-90
2022/05/11 08:22:58;;;;;;;;;;;18.30;99.90;;;;;;4975781;28;20386;-91
2022/05/11 08:25:25;;;;;;;;;;;18.50;99.90;;;;;;4975597;28;19916;-90
2022/05/11 08:27:51;;;;;;;;;;;18.40;99.90;;;;;;4993020;28;19928;-91
2022/05/11 08:33:45;;;;;;;;;;;18.70;99.90;;;;;;4993309;28;19917;-91
2022/05/11 08:35:53;;;;;;;;;;;18.70;99.90;;;;;;4977205;28;19909;-91
2022/05/11 08:38:21;;;;;;;;;;;18.40;99.90;;;;;;4975120;28;19910;-91
2022/05/11 08:40:50;;;;;;;;;;;18.30;99.90;;;;;;4992919;28;20010;-90
2022/05/11 08:43:17;;;;;;;;;;;18.40;99.90;;;;;;4992702;28;20283;-92
2022/05/11 08:46:01;;;;;;;;;;;18.50;99.90;;;;;;4992928;28;19933;-91
2022/05/11 08:48:32;;;;;;;;;;;18.50;99.90;;;;;;4975158;28;19921;-91
2022/05/11 08:51:01;;;;;;;;;;;18.60;99.90;;;;;;4992757;28;19910;-91
2022/05/11 08:53:40;;;;;;;;;;;18.80;99.90;;;;;;4975200;28;20018;-92
2022/05/11 08:56:16;;;;;;;;;;;18.80;99.90;;;;;;4975026;28;20009;-91
2022/05/11 08:58:48;;;;;;;;;;;18.90;99.90;;;;;;4974655;28;20004;-91
2022/05/11 09:01:42;;;;;;;;;;;19.00;99.90;;;;;;4974844;28;19917;-91
2022/05/11 09:04:09;;;;;;;;;;;18.90;99.90;;;;;;4989580;28;20000;-91
2022/05/11 09:06:36;;;;;;;;;;;19.00;99.90;;;;;;4976673;28;19917;-90
2022/05/11 09:09:03;;;;;;;;;;;18.90;99.90;;;;;;4995200;28;20390;-91
2022/05/11 09:11:40;;;;;;;;;;;18.90;99.90;;;;;;4992484;28;19914;-91
2022/05/11 09:14:05;;;;;;;;;;;18.80;99.90;;;;;;4974904;28;19909;-91
2022/05/11 09:16:44;;;;;;;;;;;18.90;99.90;;;;;;4974820;28;19917;-91
2022/05/11 09:19:23;;;;;;;;;;;19.10;99.90;;;;;;4992337;28;19976;-93
2022/05/11 09:21:53;;;;;;;;;;;19.00;99.90;;;;;;4990775;28;20405;-92
2022/05/11 09:24:25;;;;;;;;;;;19.20;99.90;;;;;;4974677;28;19910;-91
2022/05/11 09:27:02;;;;;;;;;;;19.00;99.90;;;;;;4992153;28;19917;-91
2022/05/11 09:29:33;;;;;;;;;;;19.10;99.90;;;;;;4974455;28;19937;-91
2022/05/11 09:32:21;;;;;;;;;;;19.20;99.90;;;;;;4991295;28;19972;-92
2022/05/11 09:34:46;;;;;;;;;;;19.30;99.90;;;;;;4974589;28;19917;-92
2022/05/11 09:37:18;;;;;;;;;;;19.20;99.90;;;;;;4974604;28;19910;-92
2022/05/11 09:39:51;;;;;;;;;;;19.20;99.90;;;;;;4991987;28;19996;-91
2022/05/11 09:42:17;;;;;;;;;;;19.10;99.90;;;;;;4991811;28;19966;-92
2022/05/11 09:44:45;;;;;;;;;;;19.10;99.90;;;;;;4992933;28;19910;-92
2022/05/11 09:47:30;;;;;;;;;;;19.10;99.90;;;;;;4994808;28;19910;-92
2022/05/11 09:50:14;;;;;;;;;;;19.30;99.90;;;;;;4992102;28;19949;-91
2022/05/11 09:52:39;;;;;;;;;;;19.30;99.90;;;;;;4974181;28;20340;-91
2022/05/11 09:55:34;;;;;;;;;;;19.40;99.90;;;;;;4974503;28;20008;-91
2022/05/11 09:58:07;;;;;;;;;;;19.50;99.90;;;;;;4957427;28;19910;-91
2022/05/11 10:00:40;;;;;;;;;;;19.60;99.90;;;;;;4991461;28;19918;-91
2022/05/11 10:03:12;;;;;;;;;;;19.70;99.90;;;;;;4973987;28;20005;-92
2022/05/11 10:05:48;;;;;;;;;;;19.70;99.90;;;;;;4993205;28;19909;-91
2022/05/11 10:08:19;;;;;;;;;;;19.70;99.90;;;;;;4997424;28;19909;-91
2022/05/11 10:10:56;;;;;;;;;;;19.80;99.90;;;;;;4992372;28;19914;-91
2022/05/11 10:13:23;;;;;;;;;;;20.10;99.90;;;;;;4991470;28;20363;-91
2022/05/11 10:24:20;;;;;;;;;;;20.90;99.90;;;;;;4991158;28;19933;-91
2022/05/11 10:26:58;;;;;;;;;;;21.20;99.90;;;;;;4974773;28;19921;-92
2022/05/11 10:29:38;;;;;;;;;;;20.70;99.90;;;;;;4991715;28;19910;-91
2022/05/11 10:32:13;;;;;;;;;;;20.60;99.90;;;;;;4991951;28;20434;-93
2022/05/11 10:35:01;;;;;;;;;;;20.60;99.90;;;;;;4992232;28;19914;-91
2022/05/11 10:37:27;;;;;;;;;;;20.50;99.90;;;;;;4991762;28;20382;-92
2022/05/11 10:39:55;;;;;;;;;;;20.30;99.90;;;;;;4974170;28;19925;-92
2022/05/11 10:42:31;;;;;;;;;;;20.30;99.90;;;;;;4991920;28;19977;-93
2022/05/11 10:45:00;;;;;;;;;;;20.30;99.90;;;;;;4978373;28;19957;-90
2022/05/11 10:47:44;;;;;;;;;;;20.20;99.90;;;;;;4995861;28;19910;-90
2022/05/11 10:50:09;;;;;;;;;;;20.10;99.90;;;;;;4995719;28;20085;-91
2022/05/11 10:52:38;;;;;;;;;;;20.20;99.90;;;;;;4996027;28;20152;-92
2022/05/11 10:55:16;;;;;;;;;;;20.40;99.90;;;;;;4997552;28;19952;-90
2022/05/11 10:57:53;;;;;;;;;;;20.20;99.90;;;;;;4979591;28;19917;-91
2022/05/11 11:00:21;;;;;;;;;;;20.30;99.90;;;;;;4995478;28;19921;-91
2022/05/11 11:03:06;;;;;;;;;;;20.40;99.90;;;;;;4977851;28;19910;-93
2022/05/11 11:05:45;;;;;;;;;;;20.60;99.90;;;;;;4995382;28;20157;-91
2022/05/11 11:08:10;;;;;;;;;;;20.60;99.90;;;;;;4977551;28;19921;-92
2022/05/11 11:10:41;;;;;;;;;;;20.60;99.90;;;;;;4977838;28;20306;-85
2022/05/11 11:13:13;;;;;;;;;;;20.70;99.90;;;;;;4997807;28;19937;-85
2022/05/11 11:15:41;;;;;;;;;;;20.90;99.90;;;;;;4994293;28;19910;-85
2022/05/11 11:18:09;;;;;;;;;;;20.80;99.90;;;;;;4993869;28;20371;-86
2022/05/11 11:20:37;;;;;;;;;;;20.50;99.90;;;;;;4993816;28;19909;-86
2022/05/11 11:23:05;;;;;;;;;;;20.40;99.90;;;;;;4994253;28;19968;-86
2022/05/11 11:25:53;;;;;;;;;;;20.40;99.90;;;;;;4994382;28;19918;-85
2022/05/11 11:28:20;;;;;;;;;;;20.50;99.90;;;;;;4994168;28;19909;-86
2022/05/11 11:30:57;;;;;;;;;;;20.50;99.90;;;;;;4994110;28;19965;-86
2022/05/11 11:33:24;;;;;;;;;;;20.40;99.90;;;;;;4994208;28;19917;-86
2022/05/11 11:35:59;;;;;;;;;;;20.50;99.90;;;;;;4993937;28;20142;-86
2022/05/11 11:38:28;;;;;;;;;;;20.70;99.90;;;;;;4993785;28;20325;-86
2022/05/11 11:41:10;;;;;;;;;;;20.90;99.90;;;;;;4993559;28;19910;-86
2022/05/11 11:43:42;;;;;;;;;;;20.80;99.90;;;;;;4993794;28;20029;-86
2022/05/11 11:46:07;;;;;;;;;;;20.90;99.90;;;;;;4994161;28;19909;-86
2022/05/11 11:48:34;;;;;;;;;;;20.70;99.90;;;;;;4996198;28;20447;-86
2022/05/11 11:51:01;;;;;;;;;;;20.70;99.90;;;;;;4993673;28;19932;-86
2022/05/11 11:53:33;;;;;;;;;;;20.80;99.90;;;;;;4993522;28;19910;-86
2022/05/11 11:56:17;;;;;;;;;;;20.90;99.90;;;;;;4992559;28;19910;-86
2022/05/11 11:58:42;;;;;;;;;;;20.80;99.90;;;;;;4993223;28;19918;-86
2022/05/11 12:01:10;;;;;;;;;;;20.70;99.90;;;;;;4993426;28;19916;-86
2022/05/11 12:03:42;;;;;;;;;;;20.80;99.90;;;;;;4993315;28;19917;-86
2022/05/11 12:17:23;;;;;;;;;;;20.70;99.90;;;;;;4993779;28;19917;-85
2022/05/11 12:19:56;;;;;;;;;;;20.70;99.90;;;;;;4993155;28;19918;-86
2022/05/11 12:22:22;;;;;;;;;;;21.10;99.90;;;;;;4975255;28;19925;-86
2022/05/11 12:24:56;;;;;;;;;;;21.20;99.90;;;;;;4975339;28;19910;-86
2022/05/11 12:27:23;;;;;;;;;;;21.30;99.90;;;;;;4993216;28;19964;-86
2022/05/11 12:29:59;;;;;;;;;;;21.30;99.90;;;;;;4992880;28;19952;-86
2022/05/11 12:32:29;;;;;;;;;;;21.10;99.90;;;;;;4993424;28;19909;-86
2022/05/11 12:34:57;;;;;;;;;;;21.20;99.90;;;;;;4992825;28;20016;-86
2022/05/11 12:37:24;;;;;;;;;;;21.00;99.90;;;;;;4992784;28;20008;-86
2022/05/11 12:40:00;;;;;;;;;;;21.30;99.90;;;;;;4974821;28;19952;-86
2022/05/11 12:42:31;;;;;;;;;;;21.00;99.90;;;;;;4974867;28;20386;-86
2022/05/11 12:44:56;;;;;;;;;;;20.90;99.90;;;;;;4992811;28;19972;-86
2022/05/11 12:47:22;;;;;;;;;;;21.10;99.90;;;;;;4992730;28;19918;-86
2022/05/11 12:49:48;;;;;;;;;;;21.30;99.90;;;;;;4975234;28;19917;-86
2022/05/11 12:52:17;;;;;;;;;;;21.60;99.90;;;;;;4992523;28;19929;-86
2022/05/11 12:54:54;;;;;;;;;;;21.80;99.90;;;;;;4975009;28;20321;-87
2022/05/11 12:57:20;;;;;;;;;;;22.20;99.90;;;;;;4992419;28;19918;-86
2022/05/11 12:59:53;;;;;;;;;;;21.90;99.90;;;;;;4992303;28;19924;-86
2022/05/11 13:02:26;;;;;;;;;;;21.70;99.90;;;;;;4992181;28;19917;-86
2022/05/11 13:05:05;;;;;;;;;;;21.50;99.90;;;;;;4991042;28;19913;-86
2022/05/11 13:07:43;;;;;;;;;;;21.80;99.90;;;;;;4987144;28;19916;-86
2022/05/11 13:10:13;;;;;;;;;;;22.20;99.90;;;;;;4974669;28;19917;-86
2022/05/11 13:12:39;;;;;;;;;;;22.10;99.90;;;;;;4993291;28;20385;-86
2022/05/11 13:15:05;;;;;;;;;;;21.80;99.90;;;;;;4992056;28;20367;-86
2022/05/11 13:17:34;;;;;;;;;;;21.80;99.90;;;;;;4974295;28;21185;-86
2022/05/11 13:20:02;;;;;;;;;;;22.20;99.90;;;;;;4991697;28;19921;-86
2022/05/11 13:22:29;;;;;;;;;;;22.40;99.90;;;;;;4974228;28;20397;-87
2022/05/11 13:24:56;;;;;;;;;;;22.60;99.90;;;;;;4991659;28;19937;-86
2022/05/11 13:27:24;;;;;;;;;;;23.10;99.90;;;;;;4991914;28;19906;-87
2022/05/11 13:30:01;;;;;;;;;;;23.40;99.90;;;;;;4992071;28;19948;-86
2022/05/11 13:32:26;;;;;;;;;;;23.50;99.90;;;;;;4991910;28;19944;-87
2022/05/11 13:35:12;;;;;;;;;;;23.50;99.90;;;;;;4991702;28;19910;-86
2022/05/11 13:37:37;;;;;;;;;;;23.50;99.90;;;;;;4991830;28;19928;-87
2022/05/11 13:40:03;;;;;;;;;;;23.40;99.90;;;;;;4973880;28;20016;-86
2022/05/11 13:42:29;;;;;;;;;;;23.30;99.90;;;;;;4991461;28;19953;-86
2022/05/11 13:44:59;;;;;;;;;;;23.90;99.90;;;;;;4991516;28;20473;-86
2022/05/11 13:50:15;;;;;;;;;;;24.80;99.90;;;;;;4991848;28;19916;-86
2022/05/11 13:52:49;;;;;;;;;;;25.00;99.90;;;;;;4991674;28;19909;-86
2022/05/11 13:55:20;;;;;;;;;;;25.10;99.90;;;;;;4991441;28;20386;-86
2022/05/11 13:57:46;;;;;;;;;;;26.20;98.90;;;;;;4991442;28;19932;-86
2022/05/11 14:00:16;;;;;;;;;;;27.40;97.40;;;;;;4991191;28;20373;-86
2022/05/11 14:02:56;;;;;;;;;;;28.40;96.50;;;;;;4974000;28;19961;-87
2022/05/11 14:05:21;;;;;;;;;;;29.60;94.80;;;;;;4991171;28;19910;-87
2022/05/11 14:07:47;;;;;;;;;;;29.70;94.00;;;;;;4991275;28;19997;-86
2022/05/11 14:10:14;;;;;;;;;;;29.50;93.80;;;;;;4991174;28;20374;-87
2022/05/11 14:12:39;;;;;;;;;;;30.10;93.40;;;;;;4991162;28;19910;-87
2022/05/11 14:15:05;;;;;;;;;;;29.90;93.50;;;;;;4991277;28;20005;-87
2022/05/11 14:17:35;;;;;;;;;;;29.90;93.40;;;;;;4991130;28;20311;-87
2022/05/11 14:20:03;;;;;;;;;;;30.40;92.30;;;;;;4990624;28;20012;-86
2022/05/11 14:22:28;;;;;;;;;;;29.70;92.20;;;;;;4990826;28;20008;-86
2022/05/11 14:24:54;;;;;;;;;;;28.50;93.50;;;;;;4990779;28;20009;-87
2022/05/11 14:27:19;;;;;;;;;;;26.50;94.90;;;;;;4991383;28;19910;-86
2022/05/11 14:29:47;;;;;;;;;;;25.10;96.60;;;;;;4973572;28;19921;-87
2022/05/11 14:32:24;;;;;;;;;;;24.00;97.80;;;;;;4991375;28;20342;-86
2022/05/11 14:34:50;;;;;;;;;;;24.00;98.60;;;;;;4991280;28;19910;-87
2022/05/11 14:37:15;;;;;;;;;;;24.90;97.30;;;;;;4991422;28;19917;-86
2022/05/11 14:39:42;;;;;;;;;;;24.40;97.80;;;;;;4989392;28;19948;-86
2022/05/11 14:42:07;;;;;;;;;;;24.80;96.90;;;;;;4990846;28;20342;-87
2022/05/11 14:44:33;;;;;;;;;;;25.70;95.90;;;;;;4990786;28;19909;-86
2022/05/11 14:46:58;;;;;;;;;;;25.30;96.00;;;;;;4990957;28;20352;-87
2022/05/11 14:49:24;;;;;;;;;;;24.60;97.10;;;;;;4990804;28;19910;-86
2022/05/11 14:51:50;;;;;;;;;;;25.30;96.60;;;;;;4991029;28;19910;-87
2022/05/11 14:54:15;;;;;;;;;;;27.20;94.60;;;;;;4990819;28;20382;-87
2022/05/11 14:56:41;;;;;;;;;;;26.50;94.90;;;;;;4990879;28;20314;-86
2022/05/11 15:01:59;;;;;;;;;;;27.10;94.00;;;;;;4990582;28;20394;-86
2022/05/11 15:04:31;;;;;;;;;;;27.60;93.60;;;;;;4990582;28;19909;-87
2022/05/11 15:06:56;;;;;;;;;;;27.90;93.60;;;;;;4990561;28;20318;-86
2022/05/11 15:09:23;;;;;;;;;;;29.40;93.20;;;;;;4990469;28;19917;-87
2022/05/11 15:14:33;;;;;;;;;;;28.30;92.60;;;;;;4990719;28;19917;-86
2022/05/11 15:17:04;;;;;;;;;;;28.70;91.90;;;;;;4990640;28;19910;-86
2022/05/11 15:19:31;;;;;;;;;;;28.70;91.90;;;;;;4990922;28;19922;-87
2022/05/11 15:21:56;;;;;;;;;;;29.70;90.80;;;;;;4990283;28;19922;-87
2022/05/11 15:24:22;;;;;;;;;;;28.60;90.60;;;;;;4972740;28;20392;-86
2022/05/11 15:26:48;;;;;;;;;;;28.80;91.00;;;;;;4990368;28;19909;-87
2022/05/11 15:29:14;;;;;;;;;;;29.50;90.00;;;;;;4990745;28;19910;-87
2022/05/11 15:31:40;;;;;;;;;;;30.50;89.30;;;;;;4976696;28;20182;-86
2022/05/11 15:34:07;;;;;;;;;;;31.70;87.50;;;;;;4993994;28;20270;-87
2022/05/11 15:36:33;;;;;;;;;;;32.20;86.00;;;;;;4976158;28;19909;-87
2022/05/11 15:38:58;;;;;;;;;;;32.10;86.10;;;;;;4993798;28;19956;-87
2022/05/11 15:41:24;;;;;;;;;;;31.50;85.30;;;;;;4993823;28;19917;-87
2022/05/11 15:43:49;;;;;;;;;;;31.70;85.50;;;;;;4976136;28;19914;-86
2022/05/11 15:46:15;;;;;;;;;;;32.20;85.70;;;;;;4993612;28;19946;-86
2022/05/11 15:48:40;;;;;;;;;;;33.00;84.80;;;;;;4976057;28;20132;-87
2022/05/11 15:51:08;;;;;;;;;;;32.80;84.10;;;;;;4993649;28;20393;-87
2022/05/11 15:53:34;;;;;;;;;;;32.50;84.30;;;;;;4993655;28;19921;-88
2022/05/11 15:56:00;;;;;;;;;;;31.80;85.90;;;;;;4975949;28;19945;-85
2022/05/11 15:58:31;;;;;;;;;;;32.10;88.20;;;;;;4976005;28;19914;-87
2022/05/11 16:00:57;;;;;;;;;;;34.40;84.90;;;;;;4993467;28;19964;-87
2022/05/11 16:03:23;;;;;;;;;;;33.20;86.30;;;;;;4993611;28;19909;-87
2022/05/11 16:05:51;;;;;;;;;;;33.00;86.00;;;;;;4993204;28;20353;-87
2022/05/11 16:08:16;;;;;;;;;;;32.80;84.80;;;;;;4993177;28;20394;-87
2022/05/11 16:10:42;;;;;;;;;;;31.90;86.00;;;;;;4991740;28;19937;-86
2022/05/11 16:13:07;;;;;;;;;;;31.10;86.40;;;;;;4992008;28;20430;-87
2022/05/11 16:15:33;;;;;;;;;;;30.60;88.00;;;;;;4993118;28;19933;-87
2022/05/11 16:20:43;;;;;;;;;;;29.70;89.30;;;;;;4992999;28;20672;-87
2022/05/11 16:23:11;;;;;;;;;;;31.50;86.70;;;;;;4975318;28;19918;-87
2022/05/11 16:25:37;;;;;;;;;;;32.80;84.80;;;;;;4992909;28;20153;-87
2022/05/11 16:28:02;;;;;;;;;;;32.80;85.40;;;;;;4975344;28;20504;-87
2022/05/11 16:30:28;;;;;;;;;;;35.30;82.80;;;;;;4975277;28;19909;-87
2022/05/11 16:32:54;;;;;;;;;;;35.60;80.00;;;;;;4993112;28;20334;-87
2022/05/11 16:35:20;;;;;;;;;;;36.00;79.50;;;;;;4975427;28;19910;-86
2022/05/11 16:37:45;;;;;;;;;;;34.80;80.10;;;;;;4992766;28;20394;-87
2022/05/11 16:40:11;;;;;;;;;;;35.30;79.40;;;;;;4991388;28;19934;-87
2022/05/11 16:42:37;;;;;;;;;;;35.10;79.20;;;;;;4991815;28;20604;-87
2022/05/11 16:45:03;;;;;;;;;;;35.20;79.20;;;;;;4975092;28;20509;-87
2022/05/11 16:47:28;;;;;;;;;;;34.50;79.80;;;;;;4992583;28;20208;-87
2022/05/11 16:49:54;;;;;;;;;;;33.70;80.20;;;;;;4992521;28;20181;-87
2022/05/11 16:52:22;;;;;;;;;;;32.30;81.90;;;;;;4992609;28;19916;-87
2022/05/11 16:54:47;;;;;;;;;;;32.20;82.70;;;;;;4992397;28;20353;-86
2022/05/11 16:57:13;;;;;;;;;;;32.40;82.20;;;;;;4992506;28;19910;-87
2022/05/11 16:59:39;;;;;;;;;;;33.50;82.10;;;;;;4992599;28;19922;-86
2022/05/11 17:02:05;;;;;;;;;;;34.50;80.70;;;;;;4991014;28;20378;-87
2022/05/11 17:04:30;;;;;;;;;;;33.40;81.40;;;;;;4992343;28;19910;-87
2022/05/11 17:06:56;;;;;;;;;;;32.30;83.20;;;;;;4992093;28;19964;-86
2022/05/11 17:09:22;;;;;;;;;;;32.70;83.20;;;;;;4992201;28;20303;-87
2022/05/11 17:11:48;;;;;;;;;;;32.30;82.90;;;;;;4991964;28;20368;-86
2022/05/11 17:14:17;;;;;;;;;;;30.90;84.40;;;;;;4992203;28;20027;-86
2022/05/11 17:16:43;;;;;;;;;;;28.60;87.90;;;;;;4992072;28;19909;-87
2022/05/11 17:19:08;;;;;;;;;;;26.50;91.90;;;;;;4992119;28;19918;-87
2022/05/11 17:21:35;;;;;;;;;;;25.40;92.90;;;;;;4974509;28;19922;-86
2022/05/11 17:24:01;;;;;;;;;;;24.20;94.80;;;;;;4992035;28;20009;-86
2022/05/11 17:26:26;;;;;;;;;;;23.40;96.50;;;;;;4991691;28;19984;-86
2022/05/11 17:28:52;;;;;;;;;;;22.70;98.50;;;;;;4991680;28;19906;-85
2022/05/11 17:31:18;;;;;;;;;;;22.20;99.20;;;;;;4991558;28;19913;-86
2022/05/11 17:33:43;;;;;;;;;;;22.00;99.90;;;;;;4974266;28;19910;-86
2022/05/11 17:36:09;;;;;;;;;;;21.80;99.90;;;;;;4991626;28;20053;-86
2022/05/11 17:38:34;;;;;;;;;;;21.90;99.90;;;;;;4991374;28;19949;-86
2022/05/11 17:41:01;;;;;;;;;;;22.40;99.90;;;;;;4991621;28;19910;-86
2022/05/11 17:43:27;;;;;;;;;;;22.70;99.90;;;;;;4974167;28;20501;-87
2022/05/11 17:45:55;;;;;;;;;;;23.30;99.20;;;;;;4991770;28;20004;-86
2022/05/11 17:48:21;;;;;;;;;;;23.70;98.70;;;;;;4991622;28;19921;-87
2022/05/11 17:50:47;;;;;;;;;;;24.00;98.20;;;;;;4973864;28;19910;-87
2022/05/11 17:53:13;;;;;;;;;;;24.00;98.10;;;;;;4972905;28;19957;-86
2022/05/11 17:55:38;;;;;;;;;;;23.60;98.30;;;;;;4991430;28;19914;-87
2022/05/11 17:58:05;;;;;;;;;;;24.00;98.10;;;;;;4973772;28;19910;-87
2022/05/11 18:00:32;;;;;;;;;;;23.60;98.20;;;;;;4991341;28;19922;-87
2022/05/11 18:02:58;;;;;;;;;;;22.90;98.90;;;;;;4991598;28;19910;-86
2022/05/11 18:05:24;;;;;;;;;;;22.20;99.90;;;;;;4991414;28;19918;-86
2022/05/11 18:07:49;;;;;;;;;;;21.50;99.90;;;;;;4991285;28;19910;-86
2022/05/11 18:10:17;;;;;;;;;;;21.10;99.90;;;;;;4991113;28;19914;-86
2022/05/11 18:12:43;;;;;;;;;;;20.80;99.90;;;;;;4991235;28;19955;-86
2022/05/11 18:15:09;;;;;;;;;;;20.80;99.90;;;;;;4995341;28;19914;-86
2022/05/11 18:17:36;;;;;;;;;;;20.70;99.90;;;;;;4994072;28;19910;-89
2022/05/11 18:20:03;;;;;;;;;;;20.70;99.90;;;;;;4991644;28;20477;-90
2022/05/11 18:22:28;;;;;;;;;;;20.70;99.90;;;;;;4973377;28;20290;-89
2022/05/11 18:24:54;;;;;;;;;;;20.70;99.90;;;;;;4991892;28;19906;-91
2022/05/11 18:27:20;;;;;;;;;;;20.50;99.90;;;;;;4972123;28;19945;-90
2022/05/11 18:29:46;;;;;;;;;;;20.50;99.90;;;;;;4991184;28;19917;-90
2022/05/11 18:32:11;;;;;;;;;;;20.40;99.90;;;;;;4974959;28;20347;-90
2022/05/11 18:34:37;;;;;;;;;;;20.10;99.90;;;;;;4991327;28;19914;-90
2022/05/11 18:37:04;;;;;;;;;;;19.90;99.90;;;;;;4993573;28;19978;-90
2022/05/11 18:39:29;;;;;;;;;;;19.80;99.90;;;;;;4991638;28;19923;-89
2022/05/11 18:41:58;;;;;;;;;;;19.60;99.90;;;;;;4974571;28;20182;-90
2022/05/11 18:44:26;;;;;;;;;;;19.50;99.90;;;;;;4991047;28;19910;-90
2022/05/11 18:46:52;;;;;;;;;;;19.40;99.90;;;;;;4991374;28;20392;-89
2022/05/11 18:49:17;;;;;;;;;;;19.40;99.90;;;;;;4963460;28;19910;-89
2022/05/11 18:51:43;;;;;;;;;;;19.40;99.90;;;;;;4969279;28;20054;-89
2022/05/11 18:54:08;;;;;;;;;;;19.20;99.90;;;;;;4968415;28;19914;-90
2022/05/11 18:56:34;;;;;;;;;;;19.10;99.90;;;;;;4961401;28;19910;-90
2022/05/11 18:59:00;;;;;;;;;;;19.20;99.90;;;;;;4974939;28;20061;-89
2022/05/11 19:01:26;;;;;;;;;;;19.10;99.90;;;;;;4970497;28;19910;-89
2022/05/11 19:03:52;;;;;;;;;;;18.90;99.90;;;;;;4970117;28;19914;-90
2022/05/11 19:06:18;;;;;;;;;;;19.00;99.90;;;;;;4957487;28;20658;-90
2022/05/11 19:08:43;;;;;;;;;;;18.90;99.90;;;;;;4975038;28;19910;-90
2022/05/11 19:11:10;;;;;;;;;;;18.80;99.90;;;;;;4973958;28;19957;-89
2022/05/11 19:13:35;;;;;;;;;;;18.70;99.90;;;;;;4982617;28;19914;-89
2022/05/11 19:16:01;;;;;;;;;;;18.70;99.90;;;;;;4983895;28;20191;-90
2022/05/11 19:18:26;;;;;;;;;;;18.60;99.90;;;;;;4984571;28;19929;-90
2022/05/11 19:20:53;;;;;;;;;;;18.60;99.90;;;;;;4985783;28;19929;-89
2022/05/11 19:23:19;;;;;;;;;;;18.50;99.90;;;;;;4966137;28;19914;-89
2022/05/11 19:25:46;;;;;;;;;;;18.50;99.90;;;;;;4984462;28;19906;-90
2022/05/11 19:28:11;;;;;;;;;;;18.50;99.90;;;;;;4984643;28;20194;-90
2022/05/11 19:30:39;;;;;;;;;;;18.40;99.90;;;;;;4967916;28;19915;-90
2022/05/11 19:33:05;;;;;;;;;;;18.30;99.90;;;;;;4987712;28;19906;-90
2022/05/11 19:35:30;;;;;;;;;;;18.20;99.90;;;;;;4989820;28;20197;-89
2022/05/11 19:37:56;;;;;;;;;;;18.20;99.90;;;;;;4985010;28;19957;-90
2022/05/11 19:40:22;;;;;;;;;;;18.20;99.90;;;;;;4976961;28;20275;-90
2022/05/11 19:42:47;;;;;;;;;;;18.20;99.90;;;;;;4994054;28;19910;-90
2022/05/11 19:45:15;;;;;;;;;;;18.20;99.90;;;;;;4994045;28;19910;-90
2022/05/11 19:47:40;;;;;;;;;;;18.20;99.90;;;;;;4994198;28;19910;-90
2022/05/11 19:50:07;;;;;;;;;;;18.20;99.90;;;;;;4976168;28;20389;-90
2022/05/11 19:52:34;;;;;;;;;;;18.20;99.90;;;;;;4993886;28;19913;-91
2022/05/11 19:54:59;;;;;;;;;;;18.30;99.90;;;;;;4993654;28;19917;-90
2022/05/11 19:57:25;;;;;;;;;;;18.30;99.90;;;;;;4969772;28;19911;-91
2022/05/11 19:59:51;;;;;;;;;;;18.20;99.90;;;;;;4968765;28;19957;-90
2022/05/11 20:02:16;;;;;;;;;;;18.20;99.90;;;;;;5004846;28;20137;-90
